Nearby METAR Reports

Sorted by Distance from Carson Valley Weather Station - Minden, Nevada

 

KMEV - Minden, Nevada, USA
Distance from station: SSW 3mi, 5km
Updated: Mon, 17-Jan-2022 2:15pm PST
Clear
Clear
 Wind from calm
Wind: Calm
Temperature: 48°F , 9°C
Dew Point: 23°F , -5°C
Humidity: 37%
Barometer: 30.03 inHg , 1016.9 hPa
Clouds: Clear
Visibility: 10 miles , 16 km
2022/01/17 22:15 KMEV 172215Z AUTO 00000KT 10SM CLR 09/M05 A3003 RMK AO2
KCXP - Carson City, Nevada, USA
Distance from station: N 10mi, 16km
Updated: Mon, 17-Jan-2022 2:15pm PST
Clear
Clear
 Wind from E
Wind: E 9 mph , 15 km/h
Temperature: 50°F , 10°C
Wind Chill: 46°F , 8°C
Dew Point: 27°F , -3°C
Humidity: 40%
Barometer: 30.04 inHg , 1017.3 hPa
Clouds: Clear
Visibility: 10 miles , 16 km
2022/01/17 22:15 KCXP 172215Z AUTO 09008KT 10SM CLR 10/M03 A3004 RMK AO2
 
KTVL - South Lake Tahoe, California, USA
Distance from station: WSW 18mi, 29km
Updated: Mon, 17-Jan-2022 1:53pm PST
Partly cloudy
Partly cloudy
 Wind from NNE
Wind: NNE 3 mph , 6 km/h
Temperature: 45°F , 7°C
Dew Point: 27°F , -3°C
Humidity: 49%
Barometer: 30.05 inHg , 1017.6 hPa
Clouds: Partly cloudy
Visibility: 10 miles , 16 km
Cloud details: Partly cloudy 5000 ft
2022/01/17 21:53 KTVL 172153Z AUTO 03003KT 10SM SCT050 07/M03 A3005 RMK AO2 SLP178 T00721033
KTRK - Truckee Tahoe, California, USA
Distance from station: NW 29mi, 46km
Updated: Mon, 17-Jan-2022 11:45am PST
NOT Current
Clear
Clear
 Wind from calm
Wind: Calm
Temperature: 30°F , -1°C
Dew Point: 25°F , -4°C
Humidity: 80%
Barometer: 30.11 inHg , 1019.6 hPa
Clouds: Clear
Visibility: 10 miles , 16 km
2022/01/17 19:45 KTRK 171945Z 00000KT 10SM CLR M01/M04 A3011
 
KRNO - Reno, Nevada, USA
Distance from station: N 32mi, 51km
Updated: Mon, 17-Jan-2022 1:55pm PST
Mostly cloudy
Mostly cloudy
 Wind from calm
Wind: Calm
Temperature: 50°F , 10°C
Dew Point: 27°F , -3°C
Humidity: 40%
Barometer: 30.04 inHg , 1017.3 hPa
Clouds: Mostly cloudy
Visibility: 10 miles , 16 km
Cloud details: Mostly cloudy 23000 ft
2022/01/17 21:55 KRNO 172155Z 00000KT 10SM BKN230 10/M03 A3004 RMK AO2 SLP169 T01001033
KRTS - Reno/Stead, Nevada, USA
Distance from station: NNW 44mi, 71km
Updated: Mon, 17-Jan-2022 2:15pm PST
Clear
Clear
 Wind from ESE
Wind: ESE 3 mph , 6 km/h
Temperature: 48°F , 9°C
Dew Point: 28°F , -2°C
Humidity: 46%
Barometer: 30.04 inHg , 1017.3 hPa
Clouds: Clear
Visibility: 10 miles , 16 km
2022/01/17 22:15 KRTS 172215Z AUTO 12003KT 10SM CLR 09/M02 A3004 RMK AO2
 
KBAN - Bridgeport(Mcmwt, California, USA
Distance from station: SSE 49mi, 79km
Updated: Mon, 17-Jan-2022 1:52pm PST
Clear
Clear
 Wind from varies
Wind: varies 3 mph , 6 km/h
Temperature: 48°F , 9°C
Dew Point: 18°F , -8°C
Humidity: 29%
Barometer: 30.02 inHg , 1016.6 hPa
Clouds: Clear
Visibility: 10 miles , 16 km
2022/01/17 21:52 KBAN 172152Z AUTO VRB03KT 10SM CLR 09/M08 A3002 RMK AO2 SLP161 T00941078 $
KBLU - Emigrant Gap, California, USA
Distance from station: WNW 55mi, 89km
Updated: Mon, 17-Jan-2022 1:52pm PST
Clear
Clear
 Wind from S
Wind: S 5 mph , 7 km/h
Temperature: 46°F , 8°C
Wind Chill: 44°F , 7°C
Dew Point: 19°F , -7°C
Humidity: 34%
Barometer: 30.08 inHg , 1018.6 hPa
Clouds: Clear
Visibility: 10 miles , 16 km
2022/01/17 21:52 KBLU 172152Z AUTO 17004KT 10SM CLR 08/M07 A3008 RMK AO2 SLP157 T00831067
 
KPVF - Placerville, California, USA
Distance from station: WSW 60mi, 96km
Updated: Mon, 17-Jan-2022 2:15pm PST
Clear
Clear
 Wind from NW
Wind: NW 3 mph , 6 km/h
Temperature: 57°F , 14°C
Dew Point: 32°F , 0°C
Humidity: 39%
Barometer: 30.04 inHg , 1017.3 hPa
Clouds: Clear
Visibility: 10 miles , 16 km
2022/01/17 22:15 KPVF 172215Z AUTO 32003KT 10SM CLR 14/00 A3004 RMK AO1
KNFL - Fallon Nas, Nevada, USA
Distance from station: ENE 61mi, 97km
Updated: Sun, 16-Jan-2022 5:56pm PST
NOT Current
Mostly cloudy
Mostly cloudy
 Wind from ENE
Wind: ENE 8 mph , 13 km/h
Temperature: 34°F , 1°C
Wind Chill: 27°F , -3°C
Dew Point: 28°F , -2°C
Humidity: 81%
Barometer: 30.16 inHg , 1021.3 hPa
Clouds: Mostly cloudy
Visibility: 10 miles , 16 km
Cloud details: Few Clouds 12000 ft
Mostly cloudy 22000 ft
2022/01/17 01:56 KNFL 170156Z 06007KT 10SM FEW120 BKN220 01/M02 A3016 RMK SLP178 LAST T00111022
 
KHTH - Hawthorne, Nevada, USA
Distance from station: ESE 68mi, 109km
Updated: Mon, 17-Jan-2022 2:15pm PST
Clear
Clear
 Wind from NNW
Wind: NNW 5 mph , 7 km/h
Temperature: 45°F , 7°C
Wind Chill: 42°F , 6°C
Dew Point: 25°F , -4°C
Humidity: 46%
Barometer: 30.06 inHg , 1017.9 hPa
Clouds: Clear
Visibility: 10 miles , 16 km
2022/01/17 22:15 KHTH 172215Z AUTO 33004KT 10SM CLR 07/M04 A3006 RMK A01
KGOO - Grass Valley, California, USA
Distance from station: W 70mi, 112km
Updated: Mon, 17-Jan-2022 2:15pm PST
Clear
Clear
 Wind from calm
Wind: Calm
Temperature: 59°F , 15°C
Dew Point: 30°F , -1°C
Humidity: 34%
Barometer: 30.03 inHg , 1016.9 hPa
Clouds: Clear
Visibility: 10 miles , 16 km
2022/01/17 22:15 KGOO 172215Z AUTO 00000KT 10SM CLR 15/M01 A3003 RMK A01
 
KAUN - Auburn Muni, California, USA
Distance from station: W 73mi, 118km
Updated: Mon, 17-Jan-2022 2:15pm PST

 Wind from W
Wind: W 5 mph , 7 km/h
Temperature: 57°F , 14°C
Dew Point: 39°F , 4°C
Humidity: 51%
Barometer: 30.03 inHg , 1016.9 hPa
Visibility: 10 miles , 16 km
2022/01/17 22:15 KAUN 172215Z AUTO 26004KT 10SM 14/04 A3003 RMK A01
KO22 - Columbia, California, USA
Distance from station: SSW 79mi, 127km
Updated: Mon, 17-Jan-2022 2:15pm PST
Few Clouds
Few Clouds
 Wind from SW
Wind: SW 7 mph , 11 km/h
Temperature: 61°F , 16°C
Dew Point: 37°F , 3°C
Humidity: 42%
Barometer: 30.01 inHg , 1016.3 hPa
Clouds: Few Clouds
Visibility: 10 miles , 16 km
Cloud details: Few Clouds 8500 ft
2022/01/17 22:15 KO22 172215Z AUTO 23006KT 10SM FEW085 16/03 A3001 RMK A01
 
KLHM - Lincoln, California, USA
Distance from station: W 88mi, 141km
Updated: Mon, 17-Jan-2022 2:15pm PST
Clear
Clear
 Wind from calm
Wind: Calm
Temperature: 57°F , 14°C
Dew Point: 41°F , 5°C
Humidity: 55%
Barometer: 30.02 inHg , 1016.6 hPa
Clouds: Clear
Visibility: 10 miles , 16 km
2022/01/17 22:15 KLHM 172215Z AUTO 00000KT 10SM CLR 14/05 A3002 RMK AO1
KBAB - Beale Afb/Marysv, California, USA
Distance from station: W 91mi, 147km
Updated: Mon, 17-Jan-2022 1:58pm PST
Clear
Clear
 Wind from NW
Wind: NW 6 mph , 9 km/h
Temperature: 59°F , 15°C
Dew Point: 46°F , 8°C
Humidity: 63%
Barometer: 30.02 inHg , 1016.6 hPa
Clouds: Clear
Visibility: 10 miles , 16 km
2022/01/17 21:58 KBAB 172158Z AUTO 32005KT 10SM CLR 15/08 A3002 RMK AO2 SLP169 T01480078 $
 
KMHR - Mather Field, California, USA
Distance from station: WSW 91mi, 147km
Updated: Mon, 17-Jan-2022 2:15pm PST
Clear
Clear
 Wind from calm
Wind: Calm
Temperature: 57°F , 14°C
Dew Point: 43°F , 6°C
Humidity: 59%
Barometer: 30.02 inHg , 1016.6 hPa
Clouds: Clear
Visibility: 10 miles , 16 km
2022/01/17 22:15 KMHR 172215Z AUTO 00000KT 10SM CLR 14/06 A3002 RMK A01
KLOL - Lovelock, Nevada, USA
Distance from station: NE 94mi, 151km
Updated: Mon, 17-Jan-2022 1:53pm PST
Clear
Clear
 Wind from S
Wind: S 5 mph , 7 km/h
Temperature: 45°F , 7°C
Wind Chill: 42°F , 6°C
Dew Point: 30°F , -1°C
Humidity: 57%
Barometer: 30.05 inHg , 1017.6 hPa
Clouds: Clear
Visibility: 10 miles , 16 km
2022/01/17 21:53 KLOL 172153Z AUTO 19004KT 10SM CLR 07/M01 A3005 RMK AO2 SLP196 T00671006
 
KMCC - Mcclellan Afb, California, USA
Distance from station: WSW 94mi, 151km
Updated: Mon, 17-Jan-2022 2:15pm PST
Light rain, Clear
Light rain, Clear
 Wind from WNW
Wind: WNW 3 mph , 6 km/h
Temperature: 55°F , 13°C
Dew Point: 41°F , 5°C
Humidity: 59%
Barometer: 30.03 inHg , 1016.9 hPa
Summary: Light rain
Clouds: Clear
Visibility: 10 miles , 16 km
2022/01/17 22:15 KMCC 172215Z AUTO 30003KT 10SM -RA CLR 13/05 A3003 RMK AO2
KMYV - Marysville, California, USA
Distance from station: W 99mi, 159km
Updated: Mon, 17-Jan-2022 1:53pm PST
Clear
Clear
 Wind from W
Wind: W 5 mph , 7 km/h
Temperature: 55°F , 13°C
Dew Point: 39°F , 4°C
Humidity: 55%
Barometer: 30.04 inHg , 1017.3 hPa
Clouds: Clear
Visibility: 10 miles , 16 km
2022/01/17 21:53 KMYV 172153Z AUTO 28004KT 10SM CLR 13/04 A3004 RMK AO2 SLP176 T01330044
 
KSVE - Susanville Muni, California, USA
Distance from station: NNW 102mi, 164km
Updated: Mon, 17-Jan-2022 2:15pm PST
Overcast
Overcast
 Wind from calm
Wind: Calm
Temperature: 30°F , -1°C
Dew Point: 30°F , -1°C
Humidity: 100%
Barometer: 30.08 inHg , 1018.6 hPa
Clouds: Overcast
Cloud details: Overcast 100 ft
2022/01/17 22:15 KSVE 172215Z AUTO 00000KT OVC001 M01/M01 A3008 RMK AO2
KSAC - Sacramento, California, USA
Distance from station: WSW 103mi, 165km
Updated: Mon, 17-Jan-2022 1:53pm PST
Few Clouds
Few Clouds
 Wind from calm
Wind: Calm
Temperature: 54°F , 12°C
Dew Point: 45°F , 7°C
Humidity: 72%
Barometer: 30.03 inHg , 1016.9 hPa
Clouds: Few Clouds
Visibility: 10 miles , 16 km
Cloud details: Few Clouds 9000 ft
2022/01/17 21:53 KSAC 172153Z 00000KT 10SM FEW090 12/07 A3003 RMK AO2 SLP169 T01220067
 
KSMF - Sacramento/Metro, California, USA
Distance from station: WSW 104mi, 167km
Updated: Mon, 17-Jan-2022 1:53pm PST
Mostly cloudy
Mostly cloudy
 Wind from WNW
Wind: WNW 5 mph , 7 km/h
Temperature: 55°F , 13°C
Dew Point: 45°F , 7°C
Humidity: 67%
Barometer: 30.03 inHg , 1016.9 hPa
Clouds: Mostly cloudy
Visibility: 10 miles , 16 km
Cloud details: Mostly cloudy 24000 ft
2022/01/17 21:53 KSMF 172153Z 29004KT 10SM BKN240 13/07 A3003 RMK AO2 SLP167 T01280067
KOVE - Oroville, California, USA
Distance from station: WNW 106mi, 171km
Updated: Mon, 17-Jan-2022 1:53pm PST
Clear
Clear
 Wind from calm
Wind: Calm
Temperature: 57°F , 14°C
Dew Point: 39°F , 4°C
Humidity: 51%
Barometer: 30.05 inHg , 1017.6 hPa
Clouds: Clear
Visibility: 10 miles , 16 km
2022/01/17 21:53 KOVE 172153Z AUTO 00000KT 10SM CLR 14/04 A3005 RMK AO2 SLP177 T01440039
 
KMMH - Mammoth/June Lak, California, USA
Distance from station: SSE 110mi, 177km
Updated: Mon, 17-Jan-2022 1:56pm PST
Clear
Clear
 Wind from SSE
Wind: SSE 5 mph , 7 km/h
Temperature: 32°F , 0°C
Wind Chill: 27°F , -3°C
Dew Point: 16°F , -9°C
Humidity: 51%
Barometer: 30.07 inHg , 1018.3 hPa
Clouds: Clear
Visibility: 10 miles , 16 km
2022/01/17 21:56 KMMH 172156Z AUTO 15004KT 10SM CLR 00/M09 A3007 RMK AO2 PWINO
KSCK - Stockton, California, USA
Distance from station: SW 114mi, 183km
Updated: Mon, 17-Jan-2022 1:55pm PST
Few Clouds
Few Clouds
 Wind from calm
Wind: Calm
Temperature: 59°F , 15°C
Dew Point: 46°F , 8°C
Humidity: 63%
Barometer: 30.02 inHg , 1016.6 hPa
Clouds: Few Clouds
Visibility: 10 miles , 16 km
Cloud details: Few Clouds 10000 ft
2022/01/17 21:55 KSCK 172155Z 00000KT 10SM FEW100 15/08 A3002 RMK AO2 SLP165 T01500078
 
KEDU - Davis, California, USA
Distance from station: WSW 116mi, 187km
Updated: Mon, 17-Jan-2022 2:15pm PST
Clear
Clear
 Wind from NNW
Wind: NNW 5 mph , 7 km/h
Temperature: 59°F , 15°C
Dew Point: 39°F , 4°C
Humidity: 48%
Barometer: 30.04 inHg , 1017.3 hPa
Clouds: Clear
Visibility: 10 miles , 16 km
2022/01/17 22:15 KEDU 172215Z AUTO 34004KT 10SM CLR 15/04 A3004 RMK AO1
KMOD - Modesto, California, USA
Distance from station: SW 119mi, 191km
Updated: Mon, 17-Jan-2022 1:53pm PST
Clear
Clear
 Wind from W
Wind: W 3 mph , 6 km/h
Temperature: 57°F , 14°C
Dew Point: 45°F , 7°C
Humidity: 63%
Barometer: 30.02 inHg , 1016.6 hPa
Clouds: Clear
Visibility: 10 miles , 16 km
2022/01/17 21:53 KMOD 172153Z 26003KT 10SM CLR 14/07 A3002 RMK AO2 SLP167 T01440067
 
KMER - Merced/Castle Af, California, USA
Distance from station: SSW 123mi, 198km
Updated: Mon, 17-Jan-2022 1:45pm PST
Light rain, Haze, Mostly cloudy
Light rain, Haze, Mostly cloudy
 Wind from calm
Wind: Calm
Temperature: 55°F , 13°C
Dew Point: 55°F , 13°C
Humidity: 100%
Barometer: 30.04 inHg , 1017.3 hPa
Summary: Light rain, Haze
Clouds: Mostly cloudy
Visibility: 3 miles , 5 km
Cloud details: Mostly cloudy 5500 ft
2022/01/17 21:45 KMER 172145Z 00000KT 3SM -RA HZ BKN055 13/13 A3004
KCIC - Chico Municipal, California, USA
Distance from station: WNW 124mi, 199km
Updated: Mon, 17-Jan-2022 1:47pm PST
Mostly cloudy
Mostly cloudy
 Wind from varies
Wind: varies 5 mph , 7 km/h
Temperature: 59°F , 15°C
Dew Point: 37°F , 3°C
Humidity: 45%
Barometer: 30.04 inHg , 1017.3 hPa
Clouds: Mostly cloudy
Visibility: 25 miles , 40 km
Cloud details: Mostly cloudy 20000 ft
2022/01/17 21:47 KCIC 172147Z VRB04KT 25SM BKN200 15/03 A3004
 
KMCE - Merced, California, USA
Distance from station: SSW 128mi, 207km
Updated: Mon, 17-Jan-2022 1:53pm PST
Haze, Overcast
Haze, Overcast
 Wind from calm
Wind: Calm
Temperature: 55°F , 13°C
Dew Point: 48°F , 9°C
Humidity: 77%
Barometer: 30.03 inHg , 1016.9 hPa
Summary: Haze
Clouds: Overcast
Visibility: 5 miles , 8 km
Cloud details: Overcast 10000 ft
2022/01/17 21:53 KMCE 172153Z AUTO 00000KT 5SM HZ OVC100 13/09 A3003 RMK AO2 SLP169 T01330094
KVCB - Vacaville, California, USA
Distance from station: WSW 128mi, 207km
Updated: Mon, 17-Jan-2022 1:53pm PST
Clear
Clear
 Wind from NNE
Wind: NNE 3 mph , 6 km/h
Temperature: 61°F , 16°C
Dew Point: 45°F , 7°C
Humidity: 55%
Barometer: 30.04 inHg , 1017.3 hPa
Clouds: Clear
Visibility: 10 miles , 16 km
2022/01/17 21:53 KVCB 172153Z AUTO 02003KT 10SM CLR 16/07 A3004 RMK AO2 SLP171 T01610067
 
KSUU - Travis Afb/Fairf, California, USA
Distance from station: WSW 130mi, 209km
Updated: Mon, 17-Jan-2022 1:58pm PST
Clear
Clear
 Wind from calm
Wind: Calm
Temperature: 64°F , 18°C
Dew Point: 45°F , 7°C
Humidity: 49%
Barometer: 30.03 inHg , 1016.9 hPa
Clouds: Clear
Visibility: 10 miles , 16 km
2022/01/17 21:58 KSUU 172158Z AUTO 00000KT 10SM CLR 18/07 A3003 RMK AO2 SLP176 T01770071 $
KBIH - Bishop, California, USA
Distance from station: SE 137mi, 221km
Updated: Mon, 17-Jan-2022 1:56pm PST
Clear
Clear
 Wind from calm
Wind: Calm
Temperature: 55°F , 13°C
Dew Point: 12°F , -11°C
Humidity: 18%
Barometer: 30.01 inHg , 1016.3 hPa
Clouds: Clear
Visibility: 10 miles , 16 km
2022/01/17 21:56 KBIH 172156Z AUTO 00000KT 10SM CLR 13/M11 A3001 RMK AO2 SLP152 T01331111
 
KMAE - Madera, California, USA
Distance from station: S 144mi, 231km
Updated: Mon, 17-Jan-2022 1:53pm PST
Haze, Mostly cloudy
Haze, Mostly cloudy
 Wind from WNW
Wind: WNW 3 mph , 6 km/h
Temperature: 61°F , 16°C
Dew Point: 48°F , 9°C
Humidity: 63%
Barometer: 30.04 inHg , 1017.3 hPa
Summary: Haze
Clouds: Mostly cloudy
Visibility: 5 miles , 8 km
Cloud details: Few Clouds 7500 ft
Mostly cloudy 10000 ft
2022/01/17 21:53 KMAE 172153Z AUTO 29003KT 5SM HZ FEW075 BKN100 16/09 A3004 RMK AO2 SLP171 T01560089
KCCR - Concord, California, USA
Distance from station: WSW 145mi, 233km
Updated: Mon, 17-Jan-2022 1:53pm PST
Mostly cloudy
Mostly cloudy
 Wind from N
Wind: N 5 mph , 7 km/h
Temperature: 57°F , 14°C
Dew Point: 43°F , 6°C
Humidity: 59%
Barometer: 30.04 inHg , 1017.3 hPa
Clouds: Mostly cloudy
Visibility: 10 miles , 16 km
Cloud details: Mostly cloudy 12000 ft
2022/01/17 21:53 KCCR 172153Z 35004KT 10SM BKN120 14/06 A3004 RMK AO2 SLP157 T01440061
 
KLVK - Livermore, California, USA
Distance from station: SW 146mi, 236km
Updated: Mon, 17-Jan-2022 1:53pm PST
Clear
Clear
 Wind from WSW
Wind: WSW 5 mph , 7 km/h
Temperature: 63°F , 17°C
Dew Point: 45°F , 7°C
Humidity: 52%
Barometer: 30.02 inHg , 1016.6 hPa
Clouds: Clear
Visibility: 10 miles , 16 km
2022/01/17 21:53 KLVK 172153Z 25004KT 10SM CLR 17/07 A3002 RMK AO2 SLP165 T01670067
KAPC - Napa, California, USA
Distance from station: WSW 150mi, 241km
Updated: Mon, 17-Jan-2022 1:54pm PST
Clear
Clear
 Wind from W
Wind: W 5 mph , 7 km/h
Temperature: 57°F , 14°C
Dew Point: 46°F , 8°C
Humidity: 67%
Barometer: 30.03 inHg , 1016.9 hPa
Clouds: Clear
Visibility: 10 miles , 16 km
2022/01/17 21:54 KAPC 172154Z 27004KT 10SM CLR 14/08 A3003 RMK AO2 SLP161 T01440083
 
KRBL - Red Bluff, California, USA
Distance from station: WNW 155mi, 249km
Updated: Mon, 17-Jan-2022 1:54pm PST
Clear
Clear
 Wind from calm
Wind: Calm
Temperature: 61°F , 16°C
Dew Point: 37°F , 3°C
Humidity: 42%
Barometer: 30.03 inHg , 1016.9 hPa
Clouds: Clear
Visibility: 10 miles , 16 km
2022/01/17 21:54 KRBL 172154Z AUTO 00000KT 10SM CLR 16/03 A3003 RMK AO2 SLP168 T01610028
KFAT - Fresno, California, USA
Distance from station: S 156mi, 251km
Updated: Mon, 17-Jan-2022 1:53pm PST
Haze, Mostly cloudy
Haze, Mostly cloudy
 Wind from WNW
Wind: WNW 6 mph , 9 km/h
Temperature: 64°F , 18°C
Dew Point: 46°F , 8°C
Humidity: 52%
Barometer: 30.05 inHg , 1017.6 hPa
Summary: Haze
Clouds: Mostly cloudy
Visibility: 4 miles , 6 km
Cloud details: Mostly cloudy 10000 ft
2022/01/17 21:53 KFAT 172153Z 30005KT 4SM HZ BKN100 18/08 A3005 RMK AO2 SLP187 T01780078 $
 
KTPH - Tonopah, Nevada, USA
Distance from station: ESE 158mi, 254km
Updated: Mon, 17-Jan-2022 1:56pm PST
Clear
Clear
 Wind from S
Wind: S 3 mph , 6 km/h
Temperature: 43°F , 6°C
Dew Point: 14°F , -10°C
Humidity: 31%
Barometer: 30.05 inHg , 1017.6 hPa
Clouds: Clear
Visibility: 10 miles , 16 km
2022/01/17 21:56 KTPH 172156Z AUTO 17003KT 10SM CLR 06/M10 A3005 RMK AO2 SLP179 T00611100
KFCH - Fresno Chandler, California, USA
Distance from station: S 161mi, 258km
Updated: Tue, 17-Aug-2021 5:15am PDT
NOT Current
Overcast
Overcast
 Wind from N
Wind: N 3 mph , 6 km/h
Temperature: 75°F , 24°C
Dew Point: 52°F , 11°C
Humidity: 44%
Barometer: 29.74 inHg , 1007.1 hPa
Clouds: Overcast
Visibility: 10 miles , 16 km
Cloud details: Overcast 4000 ft
2021/08/17 12:15 KFCH 171215Z AUTO 36003KT 10SM OVC040 24/11 A2974 RMK A01
 
KHWD - Hayward, California, USA
Distance from station: SW 161mi, 259km
Updated: Mon, 17-Jan-2022 1:54pm PST
Mostly cloudy
Mostly cloudy
 Wind from varies
Wind: varies 3 mph , 6 km/h
Temperature: 63°F , 17°C
Dew Point: 45°F , 7°C
Humidity: 52%
Barometer: 30.02 inHg , 1016.6 hPa
Clouds: Mostly cloudy
Visibility: 7 miles , 11 km
Cloud details: Mostly cloudy 10000 ft
2022/01/17 21:54 KHWD 172154Z VRB03KT 7SM BKN100 17/07 A3002 RMK AO2 SLP175 T01670072
KOAK - Oakland, California, USA
Distance from station: SW 164mi, 264km
Updated: Mon, 17-Jan-2022 1:53pm PST
Partly cloudy
Partly cloudy
 Wind from W
Wind: W 7 mph , 11 km/h
Temperature: 57°F , 14°C
Dew Point: 45°F , 7°C
Humidity: 63%
Barometer: 30.03 inHg , 1016.9 hPa
Clouds: Partly cloudy
Visibility: 8 miles , 13 km
Cloud details: Partly cloudy 13000 ft
2022/01/17 21:53 KOAK 172153Z 28006KT 8SM SCT130 14/07 A3003 RMK AO2 SLP168 T01440067 $
 
KWMC - Winnemucca, Nevada, USA
Distance from station: NE 164mi, 264km
Updated: Mon, 17-Jan-2022 1:56pm PST
Clear
Clear
 Wind from calm
Wind: Calm
Temperature: 45°F , 7°C
Dew Point: 30°F , -1°C
Humidity: 57%
Barometer: 30.04 inHg , 1017.3 hPa
Clouds: Clear
Visibility: 10 miles , 16 km
2022/01/17 21:56 KWMC 172156Z AUTO 00000KT 10SM CLR 07/M01 A3004 RMK AO2 SLP185 T00671011
KDVO - Novato/Gnoss Fld, California, USA
Distance from station: WSW 165mi, 265km
Updated: Mon, 17-Jan-2022 2:15pm PST
Mostly cloudy
Mostly cloudy
 Wind from calm
Wind: Calm
Temperature: 59°F , 15°C
Dew Point: 43°F , 6°C
Humidity: 55%
Barometer: 30.04 inHg , 1017.3 hPa
Clouds: Mostly cloudy
Visibility: 10 miles , 16 km
Cloud details: Mostly cloudy 12000 ft
2022/01/17 22:15 KDVO 172215Z AUTO 00000KT 10SM BKN120 15/06 A3004 RMK AO2
 
KO69 - Petaluma, California, USA
Distance from station: WSW 165mi, 265km
Updated: Mon, 17-Jan-2022 2:15pm PST
Clear
Clear
 Wind from calm
Wind: Calm
Temperature: 57°F , 14°C
Dew Point: 46°F , 8°C
Humidity: 67%
Barometer: 30.05 inHg , 1017.6 hPa
Clouds: Clear
Visibility: 10 miles , 16 km
2022/01/17 22:15 KO69 172215Z AUTO 00000KT 10SM CLR 14/08 A3005 RMK A01
KRHV - San Jose/Reid, California, USA
Distance from station: SW 165mi, 265km
Updated: Mon, 17-Jan-2022 1:47pm PST
Mostly cloudy
Mostly cloudy
 Wind from calm
Wind: Calm
Temperature: 63°F , 17°C
Dew Point: 46°F , 8°C
Humidity: 56%
Barometer: 30.03 inHg , 1016.9 hPa
Clouds: Mostly cloudy
Visibility: 8 miles , 13 km
Cloud details: Partly cloudy 7000 ft
Mostly cloudy 10000 ft
2022/01/17 21:47 KRHV 172147Z 00000KT 8SM SCT070 BKN100 17/08 A3003
 
KSJC - San Jose, California, USA
Distance from station: SW 166mi, 267km
Updated: Mon, 17-Jan-2022 1:53pm PST
Mostly cloudy
Mostly cloudy
 Wind from calm
Wind: Calm
Temperature: 63°F , 17°C
Dew Point: 46°F , 8°C
Humidity: 56%
Barometer: 30.02 inHg , 1016.6 hPa
Clouds: Mostly cloudy
Visibility: 7 miles , 11 km
Cloud details: Partly cloudy 7500 ft
Mostly cloudy 10000 ft
2022/01/17 21:53 KSJC 172153Z 00000KT 7SM SCT075 BKN100 17/08 A3002 RMK AO2 SLP165 T01670078
KE16 - San Martin, California, USA
Distance from station: SW 169mi, 273km
Updated: Mon, 17-Jan-2022 2:10pm PST
Overcast
Overcast
 Wind from N
Wind: N 7 mph , 11 km/h
Temperature: 59°F , 15°C
Dew Point: 48°F , 9°C
Humidity: 68%
Barometer: 30.04 inHg , 1017.3 hPa
Clouds: Overcast
Visibility: 8 miles , 13 km
Cloud details: Overcast 9000 ft
2022/01/17 22:10 KE16 172210Z AUTO 36006KT 8SM OVC090 15/09 A3004 RMK AO2 PWINO PNO
 
KPAO - Palo Alto, California, USA
Distance from station: SW 169mi, 273km
Updated: Mon, 17-Jan-2022 1:47pm PST
Mostly cloudy
Mostly cloudy
 Wind from calm
Wind: Calm
Temperature: 57°F , 14°C
Dew Point: 46°F , 8°C
Humidity: 67%
Barometer: 30.03 inHg , 1016.9 hPa
Clouds: Mostly cloudy
Visibility: 10 miles , 16 km
Cloud details: Mostly cloudy 8000 ft
2022/01/17 21:47 KPAO 172147Z 00000KT 10SM BKN080 14/08 A3003
KNUQ - Moffett Nas/Mtn, California, USA
Distance from station: SW 170mi, 273km
Updated: Mon, 17-Jan-2022 2:15pm PST
Haze, Clear
Haze, Clear
 Wind from calm
Wind: Calm
Temperature: 61°F , 16°C
Dew Point: 46°F , 8°C
Humidity: 59%
Barometer: 30.03 inHg , 1016.9 hPa
Summary: Haze
Clouds: Clear
Visibility: 6 miles , 10 km
2022/01/17 22:15 KNUQ 172215Z AUTO 00000KT 6SM HZ CLR 16/08 A3003 RMK AO2
 
KRDD - Redding, California, USA
Distance from station: NW 171mi, 275km
Updated: Mon, 17-Jan-2022 1:53pm PST
Clear
Clear
 Wind from S
Wind: S 3 mph , 6 km/h
Temperature: 61°F , 16°C
Dew Point: 39°F , 4°C
Humidity: 45%
Barometer: 30.01 inHg , 1016.3 hPa
Clouds: Clear
Visibility: 10 miles , 16 km
2022/01/17 21:53 KRDD 172153Z 17003KT 10SM CLR 16/04 A3001 RMK AO2 SLP161 T01610039
KSTS - Santa Rosa, California, USA
Distance from station: WSW 171mi, 275km
Updated: Mon, 17-Jan-2022 1:53pm PST
Partly cloudy
Partly cloudy
 Wind from S
Wind: S 3 mph , 6 km/h
Temperature: 55°F , 13°C
Dew Point: 45°F , 7°C
Humidity: 67%
Barometer: 30.04 inHg , 1017.3 hPa
Clouds: Partly cloudy
Visibility: 10 miles , 16 km
Cloud details: Partly cloudy 20000 ft
2022/01/17 21:53 KSTS 172153Z 18003KT 10SM SCT200 13/07 A3004 RMK AO2 SLP166 T01330072
 
KSQL - San Carlos Airpo, California, USA
Distance from station: SW 173mi, 278km
Updated: Mon, 17-Jan-2022 1:47pm PST
Few Clouds
Few Clouds
 Wind from calm
Wind: Calm
Temperature: 57°F , 14°C
Dew Point: 46°F , 8°C
Humidity: 67%
Barometer: 30.03 inHg , 1016.9 hPa
Clouds: Few Clouds
Visibility: 10 miles , 16 km
Cloud details: Few Clouds 7500 ft
2022/01/17 21:47 KSQL 172147Z 00000KT 10SM FEW075 14/08 A3003
KCVH - Hollister Muni, California, USA
Distance from station: SSW 174mi, 280km
Updated: Mon, 17-Jan-2022 2:15pm PST
Partly cloudy
Partly cloudy
 Wind from calm
Wind: Calm
Temperature: 61°F , 16°C
Dew Point: 46°F , 8°C
Humidity: 59%
Barometer: 30.04 inHg , 1017.3 hPa
Clouds: Partly cloudy
Visibility: 10 miles , 16 km
Cloud details: Few Clouds 7500 ft
Partly cloudy 9000 ft
2022/01/17 22:15 KCVH 172215Z AUTO 00000KT 10SM FEW075 SCT090 16/08 A3004 RMK A01
 
KSFO - San Francisco, California, USA
Distance from station: SW 174mi, 280km
Updated: Mon, 17-Jan-2022 1:56pm PST
Mostly cloudy
Mostly cloudy
 Wind from NNE
Wind: NNE 5 mph , 7 km/h
Temperature: 57°F , 14°C
Dew Point: 48°F , 9°C
Humidity: 72%
Barometer: 30.02 inHg , 1016.6 hPa
Clouds: Mostly cloudy
Visibility: 9 miles , 14 km
Cloud details: Few Clouds 9000 ft
Mostly cloudy 20000 ft
2022/01/17 21:56 KSFO 172156Z 02004KT 9SM FEW090 BKN200 14/09 A3002 RMK AO2 SLP167 T01390089
KAAT - Alturas, California, USA
Distance from station: NNW 175mi, 281km
Updated: Mon, 17-Jan-2022 1:55pm PST
Clear
Clear
 Wind from W
Wind: W 6 mph , 9 km/h
Temperature: 50°F , 10°C
Wind Chill: 48°F , 9°C
Dew Point: 21°F , -6°C
Humidity: 32%
Barometer: 30.02 inHg , 1016.6 hPa
Clouds: Clear
Visibility: 10 miles , 16 km
2022/01/17 21:55 KAAT 172155Z AUTO 28005KT 10SM CLR 10/M06 A3002 RMK AO2 SLP172 T01001056
 
KBAM - Battle Mtn (vor), Nevada, USA
Distance from station: NE 182mi, 294km
Updated: Mon, 17-Jan-2022 2:15pm PST
Clear
Clear
 Wind from WSW
Wind: WSW 3 mph , 6 km/h
Temperature: 45°F , 7°C
Dew Point: 30°F , -1°C
Humidity: 57%
Barometer: 30.06 inHg , 1017.9 hPa
Clouds: Clear
Visibility: 10 miles , 16 km
2022/01/17 22:15 KBAM 172215Z AUTO 24003KT 10SM CLR 07/M01 A3006 RMK AO1
KHAF - Half Moon Bay, California, USA
Distance from station: SW 184mi, 296km
Updated: Mon, 17-Jan-2022 2:15pm PST
Haze, Clear
Haze, Clear
 Wind from calm
Wind: Calm
Temperature: 59°F , 15°C
Dew Point: 48°F , 9°C
Humidity: 68%
Barometer: 30.03 inHg , 1016.9 hPa
Summary: Haze
Clouds: Clear
Visibility: 5 miles , 8 km
2022/01/17 22:15 KHAF 172215Z AUTO 00000KT 5SM HZ CLR 15/09 A3003 RMK AO2
 
KWVI - Watsonville, California, USA
Distance from station: SW 184mi, 296km
Updated: Mon, 17-Jan-2022 1:53pm PST
Overcast
Overcast
 Wind from W
Wind: W 6 mph , 9 km/h
Temperature: 59°F , 15°C
Dew Point: 46°F , 8°C
Humidity: 63%
Barometer: 30.03 inHg , 1016.9 hPa
Clouds: Overcast
Visibility: 10 miles , 16 km
Cloud details: Partly cloudy 8000 ft
Overcast 10000 ft
2022/01/17 21:53 KWVI 172153Z AUTO 26005KT 10SM SCT080 OVC100 15/08 A3003 RMK AO2 SLP169 T01500078
KUKI - Ukiah, California, USA
Distance from station: W 187mi, 300km
Updated: Mon, 17-Jan-2022 1:56pm PST
Clear
Clear
 Wind from calm
Wind: Calm
Temperature: 61°F , 16°C
Dew Point: 37°F , 3°C
Humidity: 42%
Barometer: 30.02 inHg , 1016.6 hPa
Clouds: Clear
Visibility: 10 miles , 16 km
2022/01/17 21:56 KUKI 172156Z AUTO 00000KT 10SM CLR 16/03 A3002 RMK AO2 SLP162 T01610033
 
KHJO - Hanford, California, USA
Distance from station: S 188mi, 303km
Updated: Mon, 17-Jan-2022 1:53pm PST
Haze, Overcast
Haze, Overcast
 Wind from calm
Wind: Calm
Temperature: 61°F , 16°C
Dew Point: 48°F , 9°C
Humidity: 63%
Barometer: 30.03 inHg , 1016.9 hPa
Summary: Haze
Clouds: Overcast
Visibility: 5 miles , 8 km
Cloud details: Overcast 9500 ft
2022/01/17 21:53 KHJO 172153Z AUTO 00000KT 5SM HZ OVC095 16/09 A3003 RMK AO2 SLP171 T01610089
KNLC - Lemoore Nas/Reev, California, USA
Distance from station: S 188mi, 303km
Updated: Mon, 17-Jan-2022 1:56pm PST
Overcast
Overcast
 Wind from NNW
Wind: NNW 6 mph , 9 km/h
Temperature: 63°F , 17°C
Dew Point: 48°F , 9°C
Humidity: 59%
Barometer: 30.03 inHg , 1016.9 hPa
Clouds: Overcast
Cloud details: Overcast 9000 ft
2022/01/17 21:56 KNLC 172156Z AUTO 34005KT OVC090 17/09 A3003 RMK AO2 SLP169 T01670089 RVRNO $
 
KVIS - Visalia Muni, California, USA
Distance from station: S 189mi, 304km
Updated: Mon, 17-Jan-2022 1:56pm PST
Clear
Clear
 Wind from calm
Wind: Calm
Temperature: 63°F , 17°C
Dew Point: 50°F , 10°C
Humidity: 64%
Barometer: 30.03 inHg , 1016.9 hPa
Clouds: Clear
Visibility: 7 miles , 11 km
2022/01/17 21:56 KVIS 172156Z AUTO 00000KT 7SM CLR 17/10 A3003 RMK AO2 SLP179 T01670100
KSNS - Salinas, California, USA
Distance from station: SSW 193mi, 311km
Updated: Mon, 17-Jan-2022 1:53pm PST
Light rain, Overcast
Light rain, Overcast
 Wind from calm
Wind: Calm
Temperature: 63°F , 17°C
Dew Point: 50°F , 10°C
Humidity: 64%
Barometer: 30.02 inHg , 1016.6 hPa
Summary: Light rain
Clouds: Overcast
Visibility: 10 miles , 16 km
Cloud details: Few Clouds 5500 ft
Overcast 8500 ft
2022/01/17 21:53 KSNS 172153Z 00000KT 10SM -RA FEW055 OVC085 17/10 A3002 RMK AO2 RAB49 SLP173 P0000 T01670100
 
K05U - Eureka, Nevada, USA
Distance from station: ENE 203mi, 326km
Updated: Mon, 17-Jan-2022 2:15pm PST
Few Clouds
Few Clouds
 Wind from calm
Wind: Calm
Temperature: 37°F , 3°C
Dew Point: 18°F , -8°C
Humidity: 45%
Barometer: 30.07 inHg , 1018.3 hPa
Clouds: Few Clouds
Visibility: 10 miles , 16 km
Cloud details: Few Clouds 8500 ft
2022/01/17 22:15 K05U 172215Z AUTO 00000KT 10SM FEW085 03/M08 A3007 RMK A01
KP68 - Eureka, Nevada, USA
Distance from station: ENE 203mi, 326km
Updated: Tue, 11-Jan-2022 1:53am PST
NOT Current

 Wind from SSW
Wind: SSW 9 mph , 15 km/h
Temperature: 18°F , -8°C
Wind Chill: 7°F , -14°C
Dew Point: 10°F , -12°C
Humidity: 73%
Barometer: 30.51 inHg , 1033.2 hPa
2022/01/11 09:53 KP68 110953Z AUTO 20008KT M08/M12 A3051 RMK AO1 SLP351 T10781117
 
KMRY - Monterey, California, USA
Distance from station: SW 206mi, 331km
Updated: Mon, 17-Jan-2022 1:54pm PST
Few Clouds
Few Clouds
 Wind from WSW
Wind: WSW 9 mph , 15 km/h
Temperature: 64°F , 18°C
Dew Point: 50°F , 10°C
Humidity: 60%
Barometer: 30.02 inHg , 1016.6 hPa
Clouds: Few Clouds
Visibility: 10 miles , 16 km
Cloud details: Few Clouds 5500 ft
Few Clouds 9000 ft
2022/01/17 21:54 KMRY 172154Z 24008KT 10SM FEW055 FEW090 18/10 A3002 RMK AO2 SLP178 T01780100
KO54 - Weaverville, California, USA
Distance from station: NW 207mi, 332km
Updated: Wed, 12-Aug-2020 11:15am PDT
NOT Current
Clear
Clear
 Wind from S
Wind: S 3 mph , 6 km/h
Temperature: 77°F , 25°C
Dew Point: 41°F , 5°C
Humidity: 28%
Barometer: 30.01 inHg , 1016.3 hPa
Clouds: Clear
Visibility: 10 miles , 16 km
2020/08/12 18:15 KO54 121815Z AUTO 17003KT 10SM CLR 25/05 A3001 RMK AO1
 
KO86 - Trinity Center, California, USA
Distance from station: NW 207mi, 333km
Updated: Mon, 17-Jan-2022 2:10pm PST
Clear
Clear
 Wind from calm
Wind: Calm
Temperature: 50°F , 10°C
Dew Point: 36°F , 2°C
Humidity: 58%
Barometer: 30.04 inHg , 1017.3 hPa
Clouds: Clear
Visibility: 10 miles , 16 km
2022/01/17 22:10 KO86 172210Z AUTO 00000KT 10SM CLR 10/02 A3004 RMK AO1
KMHS - Mount Shasta, California, USA
Distance from station: NW 209mi, 336km
Updated: Mon, 17-Jan-2022 1:56pm PST

 
Barometer: 30.02 inHg , 1016.6 hPa
2022/01/17 21:56 KMHS 172156Z AUTO A3002 RMK AO2 SLPNO PWINO FZRANO $
 
KPTV - Porterville, California, USA
Distance from station: S 212mi, 341km
Updated: Mon, 17-Jan-2022 1:56pm PST
Clear
Clear
 
Temperature: 64°F , 18°C
Dew Point: 46°F , 8°C
Humidity: 52%
Barometer: 30.03 inHg , 1016.9 hPa
Clouds: Clear
Visibility: 9 miles , 14 km
2022/01/17 21:56 KPTV 172156Z AUTO 9SM CLR 18/08 A3003 RMK AO2 SLP170 T01830083 $
KLKV - Lakeview, Oregon, USA
Distance from station: N 219mi, 353km
Updated: Mon, 17-Jan-2022 1:53pm PST
Clear
Clear
 Wind from E
Wind: E 3 mph , 6 km/h
Temperature: 43°F , 6°C
Dew Point: 28°F , -2°C
Humidity: 57%
Barometer: 30.04 inHg , 1017.3 hPa
Clouds: Clear
Visibility: 10 miles , 16 km
2022/01/17 21:53 KLKV 172153Z AUTO 08003KT 10SM CLR 06/M02 A3004 RMK AO2 SLP198 T00611017
 
KSIY - Montague/Siskiyo, California, USA
Distance from station: NW 237mi, 382km
Updated: Mon, 17-Jan-2022 1:53pm PST
Clear
Clear
 Wind from calm
Wind: Calm
Temperature: 48°F , 9°C
Dew Point: 32°F , 0°C
Humidity: 54%
Barometer: 30.07 inHg , 1018.3 hPa
Clouds: Clear
Visibility: 10 miles , 16 km
2022/01/17 21:53 KSIY 172153Z AUTO 00000KT 10SM CLR 09/00 A3007 RMK AO2 SLP203 T00890000 $
KPRB - Paso Robles, California, USA
Distance from station: SSW 238mi, 383km
Updated: Mon, 17-Jan-2022 1:53pm PST
Overcast
Overcast
 Wind from ENE
Wind: ENE 3 mph , 6 km/h
Temperature: 66°F , 19°C
Dew Point: 50°F , 10°C
Humidity: 56%
Barometer: 30.02 inHg , 1016.6 hPa
Clouds: Overcast
Visibility: 10 miles , 16 km
Cloud details: Overcast 5000 ft
2022/01/17 21:53 KPRB 172153Z AUTO 06003KT 10SM OVC050 19/10 A3002 RMK AO2 RAE09 SLP160 P0000 T01890100
 
KLMT - Klamath Falls, Oregon, USA
Distance from station: NNW 239mi, 385km
Updated: Mon, 17-Jan-2022 1:53pm PST
Clear
Clear
 Wind from calm
Wind: Calm
Temperature: 45°F , 7°C
Dew Point: 28°F , -2°C
Humidity: 53%
Barometer: 30.04 inHg , 1017.3 hPa
Clouds: Clear
Visibility: 10 miles , 16 km
2022/01/17 21:53 KLMT 172153Z 00000KT 10SM CLR 07/M02 A3004 RMK AO2 SLP181 T00671022 $
KEKO - Elko, Nevada, USA
Distance from station: ENE 242mi, 390km
Updated: Mon, 17-Jan-2022 1:56pm PST
Clear
Clear
 Wind from calm
Wind: Calm
Temperature: 43°F , 6°C
Dew Point: 23°F , -5°C
Humidity: 46%
Barometer: 30.04 inHg , 1017.3 hPa
Clouds: Clear
Visibility: 10 miles , 16 km
2022/01/17 21:56 KEKO 172156Z AUTO 00000KT 10SM CLR 06/M05 A3004 RMK AO2 SLP186 T00561050
 
KBFL - Bakersfield, California, USA
Distance from station: S 252mi, 405km
Updated: Mon, 17-Jan-2022 1:54pm PST
Haze, Partly cloudy
Haze, Partly cloudy
 Wind from S
Wind: S 3 mph , 6 km/h
Temperature: 61°F , 16°C
Dew Point: 45°F , 7°C
Humidity: 55%
Barometer: 30.02 inHg , 1016.6 hPa
Summary: Haze
Clouds: Partly cloudy
Visibility: 4 miles , 6 km
Cloud details: Partly cloudy 9000 ft
2022/01/17 21:54 KBFL 172154Z 19003KT 4SM HZ SCT090 16/07 A3002 RMK AO2 SLP163 T01610067
KFOT - Fortuna, California, USA
Distance from station: WNW 256mi, 413km
Updated: Mon, 17-Jan-2022 2:10pm PST
Clear
Clear
 Wind from WNW
Wind: WNW 12 mph , 19 km/h
Temperature: 50°F , 10°C
Wind Chill: 45°F , 7°C
Dew Point: 46°F , 8°C
Humidity: 88%
Barometer: 30.04 inHg , 1017.3 hPa
Clouds: Clear
Visibility: 10 miles , 16 km
2022/01/17 22:10 KFOT 172210Z AUTO 30010KT 10SM CLR 10/08 A3004 RMK AO1
 
KNID - China Lake (naf), California, USA
Distance from station: SSE 259mi, 417km
Updated: Mon, 17-Jan-2022 1:56pm PST
Clear
Clear
 Wind from calm
Wind: Calm
Temperature: 64°F , 18°C
Dew Point: 21°F , -6°C
Humidity: 19%
Barometer: 29.99 inHg , 1015.6 hPa
Clouds: Clear
2022/01/17 21:56 KNID 172156Z AUTO 00000KT CLR 18/M06 A2999 RMK AO2 SLP153 T01781061 $
KDRA - Desert R/Mercury, Nevada, USA
Distance from station: SE 262mi, 421km
Updated: Sat, 15-Jan-2022 11:53am PST
NOT Current
Clear
Clear
 Wind from ESE
Wind: ESE 12 mph , 19 km/h, Gust: 24 mph , 39 km/h
Temperature: 55°F , 13°C
Dew Point: 14°F , -10°C
Humidity: 19%
Barometer: 30.32 inHg , 1026.8 hPa
Clouds: Clear
Visibility: 10 miles , 16 km
2022/01/15 19:53 KDRA 151953Z AUTO 11010G21KT 10SM CLR 13/M10 A3032 RMK AO2 SLP249 T01281100
 
KELY - Ely, Nevada, USA
Distance from station: E 262mi, 421km
Updated: Mon, 17-Jan-2022 1:53pm PST
Clear
Clear
 Wind from SW
Wind: SW 3 mph , 6 km/h
Temperature: 45°F , 7°C
Dew Point: 10°F , -12°C
Humidity: 25%
Barometer: 30.02 inHg , 1016.6 hPa
Clouds: Clear
Visibility: 10 miles , 16 km
2022/01/17 21:53 KELY 172153Z AUTO 22003KT 10SM CLR 07/M12 A3002 RMK AO2 SLP169 T00721122
KREO - Rome, Oregon, USA
Distance from station: NNE 263mi, 424km
Updated: Sat, 15-Jan-2022 5:52am PST
NOT Current

 Wind from SW
Wind: SW 5 mph , 7 km/h
Temperature: 21°F , -6°C
Wind Chill: 14°F , -10°C
Dew Point: 18°F , -8°C
Humidity: 86%
Barometer: 30.41 inHg , 1029.8 hPa
2022/01/15 13:52 KREO 151352Z AUTO 23004KT M06/M08 A3041 RMK AO1 SLP330 T10561078
 
KACV - Arcata/Eureka, California, USA
Distance from station: WNW 268mi, 431km
Updated: Mon, 17-Jan-2022 1:53pm PST
Overcast
Overcast
 Wind from WNW
Wind: WNW 9 mph , 15 km/h
Temperature: 48°F , 9°C
Wind Chill: 44°F , 7°C
Dew Point: 45°F , 7°C
Humidity: 87%
Barometer: 30.06 inHg , 1017.9 hPa
Clouds: Overcast
Visibility: 10 miles , 16 km
Cloud details: Overcast 500 ft
2022/01/17 21:53 KACV 172153Z AUTO 30008KT 10SM OVC005 09/07 A3006 RMK AO2 SLP187 T00890067
KSBP - San Luis Obispo, California, USA
Distance from station: S 268mi, 431km
Updated: Mon, 17-Jan-2022 1:56pm PST
Overcast
Overcast
 Wind from SW
Wind: SW 8 mph , 13 km/h
Temperature: 63°F , 17°C
Dew Point: 46°F , 8°C
Humidity: 56%
Barometer: 30.03 inHg , 1016.9 hPa
Clouds: Overcast
Visibility: 10 miles , 16 km
Cloud details: Mostly cloudy 5500 ft
Overcast 11000 ft
2022/01/17 21:56 KSBP 172156Z 22007KT 10SM BKN055 OVC110 17/08 A3003 RMK AO2 SLP169 T01670083
 
KINS - Indian Springs, Nevada, USA
Distance from station: SE 279mi, 449km
Updated: Mon, 17-Jan-2022 1:58pm PST
Clear
Clear
 Wind from calm
Wind: Calm
Temperature: 57°F , 14°C
Dew Point: 14°F , -10°C
Humidity: 18%
Barometer: 30.02 inHg , 1016.6 hPa
Clouds: Clear
Visibility: 10 miles , 16 km
2022/01/17 21:58 KINS 172158Z AUTO 00000KT 10SM CLR 14/M10 A3002 RMK AO2 SLP159 T01371102 $
KTSP - Tehachapi, California, USA
Distance from station: SSE 279mi, 449km
Updated: Mon, 17-Jan-2022 2:15pm PST
Overcast
Overcast
 Wind from NW
Wind: NW 10 mph , 17 km/h
Temperature: 52°F , 11°C
Dew Point: 30°F , -1°C
Humidity: 44%
Barometer: 30.05 inHg , 1017.6 hPa
Clouds: Overcast
Visibility: 10 miles , 16 km
Cloud details: Few Clouds 7000 ft
Overcast 8500 ft
2022/01/17 22:15 KTSP 172215Z AUTO 32009KT 10SM FEW070 OVC085 11/M01 A3005 RMK AO2
 
KMFR - Medford, Oregon, USA
Distance from station: NW 284mi, 457km
Updated: Mon, 17-Jan-2022 1:53pm PST
Clear
Clear
 Wind from calm
Wind: Calm
Temperature: 48°F , 9°C
Dew Point: 36°F , 2°C
Humidity: 62%
Barometer: 30.06 inHg , 1017.9 hPa
Clouds: Clear
Visibility: 10 miles , 16 km
2022/01/17 21:53 KMFR 172153Z 00000KT 10SM CLR 09/02 A3006 RMK AO2 SLP187 T00890022 $
KMHV - Mojave, California, USA
Distance from station: SSE 288mi, 463km
Updated: Mon, 17-Jan-2022 2:00pm PST
Overcast
Overcast
 Wind from SW
Wind: SW 14 mph , 22 km/h, Gust: 20 mph , 31 km/h
Temperature: 59°F , 15°C
Dew Point: 45°F , 7°C
Humidity: 59%
Barometer: 30.01 inHg , 1016.3 hPa
Clouds: Overcast
Visibility: 10 miles , 16 km
Cloud details: Mostly cloudy 6000 ft
Overcast 8500 ft
2022/01/17 22:00 KMHV 172200Z AUTO 23012G17KT 10SM BKN060 OVC085 15/07 A3001 RMK A01
 
KSMX - Santa Maria, California, USA
Distance from station: S 289mi, 465km
Updated: Mon, 17-Jan-2022 2:02pm PST
Light rain, Overcast
Light rain, Overcast
 Wind from W
Wind: W 6 mph , 9 km/h
Temperature: 57°F , 14°C
Dew Point: 52°F , 11°C
Humidity: 82%
Barometer: 30.04 inHg , 1017.3 hPa
Summary: Light rain
Clouds: Overcast
Visibility: 6 miles , 10 km
Cloud details: Mostly cloudy 8000 ft
Overcast 9000 ft
2022/01/17 22:02 KSMX 172202Z 28005KT 6SM -RA BKN080 OVC090 14/11 A3004 RMK AO2 P0002 T01390111
K9L2 - Edwards N-Aux, California, USA
Distance from station: SSE 299mi, 482km
Updated: Mon, 17-Jan-2022 2:13pm PST
Mostly cloudy
Mostly cloudy
 Wind from S
Wind: S 9 mph , 15 km/h
Temperature: 61°F , 16°C
Dew Point: 39°F , 4°C
Humidity: 45%
Barometer: 30.00 inHg , 1015.9 hPa
Clouds: Mostly cloudy
Visibility: 7 miles , 11 km
Cloud details: Mostly cloudy 8000 ft
2022/01/17 22:13 K9L2 172213Z AUTO 19008KT 7SM BKN080 16/04 A3000 RMK AO2 SLP155
Honor Flight NV - Honoring all of our Veterans CoCoRaHS (Community Collaborative Rain, Hail and Snow Network) Station Number: NV-DG-2 Live Lightning Map - USA Reno Skywarn Spotter ID: DO21 AlertID Southwestern Weather Network Carson Valley Community Food Closet - providing for the needs of our community



Do you have a Teacher in the family or are a teacher yourself?
Check out this new website for the Teacher Community.
(Click on the logo below)
Teacher 
		  Times Two Designs - providing  teacher tees & accessories for the teaching community

(Click on the Flag Counter logo below for details in new browser tab)
Flag Counter